sensor_id;sensor_type;location;lat;lon;timestamp;pressure;altitude;pressure_sealevel;temperature;humidity
3142;BME280;1581;51.568;6.998;2023-03-26T00:01:09;100028.59;;;9.53;100.00
3142;BME280;1581;51.568;6.998;2023-03-26T00:03:39;100032.69;;;9.55;100.00
3142;BME280;1581;51.568;6.998;2023-03-26T00:06:10;100033.28;;;9.51;100.00
3142;BME280;1581;51.568;6.998;2023-03-26T00:08:41;100028.84;;;9.64;100.00
3142;BME280;1581;51.568;6.998;2023-03-26T00:11:14;100026.19;;;9.64;100.00
3142;BME280;1581;51.568;6.998;2023-03-26T00:13:44;100032.28;;;9.58;100.00
3142;BME280;1581;51.568;6.998;2023-03-26T00:16:15;100026.63;;;9.74;100.00
3142;BME280;1581;51.568;6.998;2023-03-26T00:18:43;100028.81;;;9.58;100.00
3142;BME280;1581;51.568;6.998;2023-03-26T00:21:14;100020.63;;;9.59;100.00
3142;BME280;1581;51.568;6.998;2023-03-26T00:23:43;100015.75;;;9.69;100.00
3142;BME280;1581;51.568;6.998;2023-03-26T00:26:12;100014.91;;;9.62;100.00
3142;BME280;1581;51.568;6.998;2023-03-26T00:28:42;100015.75;;;9.69;100.00
3142;BME280;1581;51.568;6.998;2023-03-26T00:31:13;100010.03;;;9.72;100.00
3142;BME280;1581;51.568;6.998;2023-03-26T00:33:42;100011.03;;;9.71;100.00
3142;BME280;1581;51.568;6.998;2023-03-26T00:36:13;100010.56;;;9.55;100.00
3142;BME280;1581;51.568;6.998;2023-03-26T00:38:44;100010.19;;;9.58;100.00
3142;BME280;1581;51.568;6.998;2023-03-26T00:41:16;100008.75;;;9.55;100.00
3142;BME280;1581;51.568;6.998;2023-03-26T00:43:49;100013.28;;;9.68;100.00
3142;BME280;1581;51.568;6.998;2023-03-26T00:46:18;100006.53;;;9.65;100.00
3142;BME280;1581;51.568;6.998;2023-03-26T00:48:46;100008.50;;;9.44;100.00
3142;BME280;1581;51.568;6.998;2023-03-26T00:51:15;100009.53;;;9.49;100.00
3142;BME280;1581;51.568;6.998;2023-03-26T00:53:46;100015.44;;;9.45;100.00
3142;BME280;1581;51.568;6.998;2023-03-26T00:56:14;100010.38;;;9.50;100.00
3142;BME280;1581;51.568;6.998;2023-03-26T00:58:43;100007.97;;;9.68;100.00
3142;BME280;1581;51.568;6.998;2023-03-26T01:01:13;100004.47;;;9.61;100.00
3142;BME280;1581;51.568;6.998;2023-03-26T01:03:44;100004.03;;;9.51;100.00
3142;BME280;1581;51.568;6.998;2023-03-26T01:06:17;99999.09;;;9.48;100.00
3142;BME280;1581;51.568;6.998;2023-03-26T01:08:50;99999.94;;;9.55;100.00
3142;BME280;1581;51.568;6.998;2023-03-26T01:11:23;100000.34;;;9.58;100.00
3142;BME280;1581;51.568;6.998;2023-03-26T01:13:56;99992.59;;;9.57;100.00
3142;BME280;1581;51.568;6.998;2023-03-26T01:16:27;99996.47;;;9.54;100.00
3142;BME280;1581;51.568;6.998;2023-03-26T01:18:56;99982.78;;;9.64;100.00
3142;BME280;1581;51.568;6.998;2023-03-26T01:21:27;99971.75;;;9.67;100.00
3142;BME280;1581;51.568;6.998;2023-03-26T01:24:00;99973.38;;;9.61;100.00
3142;BME280;1581;51.568;6.998;2023-03-26T01:27:03;99970.50;;;9.69;100.00
3142;BME280;1581;51.568;6.998;2023-03-26T01:29:42;99967.88;;;9.63;100.00
3142;BME280;1581;51.568;6.998;2023-03-26T01:32:28;99965.81;;;9.65;100.00
3142;BME280;1581;51.568;6.998;2023-03-26T01:35:17;99958.63;;;9.59;100.00
3142;BME280;1581;51.568;6.998;2023-03-26T01:37:58;99961.47;;;9.51;100.00
3142;BME280;1581;51.568;6.998;2023-03-26T01:40:43;99958.84;;;9.64;100.00
3142;BME280;1581;51.568;6.998;2023-03-26T01:43:26;99958.38;;;9.41;100.00
3142;BME280;1581;51.568;6.998;2023-03-26T01:45:56;99963.34;;;9.57;100.00
3142;BME280;1581;51.568;6.998;2023-03-26T01:48:30;99955.00;;;9.73;100.00
3142;BME280;1581;51.568;6.998;2023-03-26T01:51:00;99944.34;;;9.73;100.00
3142;BME280;1581;51.568;6.998;2023-03-26T01:53:28;99939.41;;;9.63;100.00
3142;BME280;1581;51.568;6.998;2023-03-26T01:56:08;99936.34;;;9.66;100.00
3142;BME280;1581;51.568;6.998;2023-03-26T01:58:51;99933.06;;;9.64;100.00
3142;BME280;1581;51.568;6.998;2023-03-26T02:01:28;99934.91;;;9.51;100.00
3142;BME280;1581;51.568;6.998;2023-03-26T02:04:03;99929.59;;;9.57;100.00
3142;BME280;1581;51.568;6.998;2023-03-26T02:06:41;99919.56;;;9.53;100.00
3142;BME280;1581;51.568;6.998;2023-03-26T02:09:15;99914.41;;;9.45;100.00
3142;BME280;1581;51.568;6.998;2023-03-26T02:11:46;99916.03;;;9.46;100.00
3142;BME280;1581;51.568;6.998;2023-03-26T02:14:15;99908.72;;;9.61;100.00
3142;BME280;1581;51.568;6.998;2023-03-26T02:16:43;99908.91;;;9.59;100.00
3142;BME280;1581;51.568;6.998;2023-03-26T02:19:13;99904.00;;;9.50;100.00
3142;BME280;1581;51.568;6.998;2023-03-26T02:21:47;99901.09;;;9.45;100.00
3142;BME280;1581;51.568;6.998;2023-03-26T02:24:17;99895.59;;;9.59;100.00
3142;BME280;1581;51.568;6.998;2023-03-26T02:26:46;99896.44;;;9.60;100.00
3142;BME280;1581;51.568;6.998;2023-03-26T02:29:15;99892.56;;;9.62;100.00
3142;BME280;1581;51.568;6.998;2023-03-26T02:31:45;99886.19;;;9.38;100.00
3142;BME280;1581;51.568;6.998;2023-03-26T02:34:13;99882.28;;;9.34;100.00
3142;BME280;1581;51.568;6.998;2023-03-26T02:36:41;99885.34;;;9.37;100.00
3142;BME280;1581;51.568;6.998;2023-03-26T02:39:09;99886.19;;;9.38;100.00
3142;BME280;1581;51.568;6.998;2023-03-26T02:41:37;99882.06;;;9.22;100.00
3142;BME280;1581;51.568;6.998;2023-03-26T02:44:07;99880.59;;;9.20;100.00
3142;BME280;1581;51.568;6.998;2023-03-26T02:46:35;99878.59;;;9.35;100.00
3142;BME280;1581;51.568;6.998;2023-03-26T02:49:02;99881.63;;;9.25;100.00
3142;BME280;1581;51.568;6.998;2023-03-26T02:51:30;99880.03;;;9.37;100.00
3142;BME280;1581;51.568;6.998;2023-03-26T02:54:00;99873.72;;;9.44;100.00
3142;BME280;1581;51.568;6.998;2023-03-26T02:56:28;99870.66;;;9.41;100.00
3142;BME280;1581;51.568;6.998;2023-03-26T02:58:56;99871.22;;;9.30;100.00
3142;BME280;1581;51.568;6.998;2023-03-26T03:01:25;99866.69;;;9.24;100.00
3142;BME280;1581;51.568;6.998;2023-03-26T03:03:56;99865.09;;;9.36;100.00
3142;BME280;1581;51.568;6.998;2023-03-26T03:06:23;99867.53;;;9.25;100.00
3142;BME280;1581;51.568;6.998;2023-03-26T03:08:51;99858.56;;;9.26;100.00
3142;BME280;1581;51.568;6.998;2023-03-26T03:11:19;99854.66;;;9.22;100.00
3142;BME280;1581;51.568;6.998;2023-03-26T03:13:50;99846.50;;;9.36;100.00
3142;BME280;1581;51.568;6.998;2023-03-26T03:16:18;99839.72;;;9.21;100.00
3142;BME280;1581;51.568;6.998;2023-03-26T03:18:47;99840.75;;;9.33;100.00
3142;BME280;1581;51.568;6.998;2023-03-26T03:21:19;99834.00;;;9.24;100.00
3142;BME280;1581;51.568;6.998;2023-03-26T03:23:47;99828.47;;;9.19;100.00
3142;BME280;1581;51.568;6.998;2023-03-26T03:26:17;99821.50;;;9.11;100.00
3142;BME280;1581;51.568;6.998;2023-03-26T03:28:47;99820.09;;;9.28;100.00
3142;BME280;1581;51.568;6.998;2023-03-26T03:31:14;99814.59;;;9.23;100.00
3142;BME280;1581;51.568;6.998;2023-03-26T03:33:43;99814.97;;;9.20;100.00
3142;BME280;1581;51.568;6.998;2023-03-26T03:36:14;99812.09;;;9.15;100.00
3142;BME280;1581;51.568;6.998;2023-03-26T03:38:43;99804.13;;;9.15;100.00
3142;BME280;1581;51.568;6.998;2023-03-26T03:41:11;99805.13;;;9.01;100.00
3142;BME280;1581;51.568;6.998;2023-03-26T03:43:39;99810.47;;;9.08;100.00
3142;BME280;1581;51.568;6.998;2023-03-26T03:46:07;99804.31;;;9.07;100.00
3142;BME280;1581;51.568;6.998;2023-03-26T03:48:35;99801.44;;;8.89;100.00
3142;BME280;1581;51.568;6.998;2023-03-26T03:51:05;99807.59;;;9.03;100.00
3142;BME280;1581;51.568;6.998;2023-03-26T03:53:35;99798.19;;;9.00;100.00
3142;BME280;1581;51.568;6.998;2023-03-26T03:56:06;99805.72;;;8.90;100.00
3142;BME280;1581;51.568;6.998;2023-03-26T03:58:35;99805.72;;;8.90;100.00
3142;BME280;1581;51.568;6.998;2023-03-26T04:01:03;99800.84;;;9.00;100.00
3142;BME280;1581;51.568;6.998;2023-03-26T04:03:31;99801.81;;;8.86;100.00
3142;BME280;1581;51.568;6.998;2023-03-26T04:06:05;99800.34;;;8.77;100.00
3142;BME280;1581;51.568;6.998;2023-03-26T04:08:34;99793.38;;;8.70;100.00
3142;BME280;1581;51.568;6.998;2023-03-26T04:11:03;99791.31;;;8.65;100.00
3142;BME280;1581;51.568;6.998;2023-03-26T04:13:30;99781.50;;;8.59;100.00
3142;BME280;1581;51.568;6.998;2023-03-26T04:15:58;99783.56;;;8.64;100.00
3142;BME280;1581;51.568;6.998;2023-03-26T04:18:26;99782.19;;;8.87;100.00
3142;BME280;1581;51.568;6.998;2023-03-26T04:20:55;99780.19;;;8.96;100.00
3142;BME280;1581;51.568;6.998;2023-03-26T04:23:28;99775.28;;;8.99;100.00
3142;BME280;1581;51.568;6.998;2023-03-26T04:26:01;99774.28;;;9.00;100.00
3142;BME280;1581;51.568;6.998;2023-03-26T04:28:33;99761.38;;;8.97;100.00
3142;BME280;1581;51.568;6.998;2023-03-26T04:31:03;99768.13;;;8.93;100.00
3142;BME280;1581;51.568;6.998;2023-03-26T04:33:33;99767.25;;;8.80;100.00
3142;BME280;1581;51.568;6.998;2023-03-26T04:36:01;99763.19;;;8.77;100.00
3142;BME280;1581;51.568;6.998;2023-03-26T04:38:29;99762.56;;;8.75;100.00
3142;BME280;1581;51.568;6.998;2023-03-26T04:41:00;99759.13;;;8.81;100.00
3142;BME280;1581;51.568;6.998;2023-03-26T04:43:28;99744.59;;;8.84;100.00
3142;BME280;1581;51.568;6.998;2023-03-26T04:46:00;99742.56;;;8.79;100.00
3142;BME280;1581;51.568;6.998;2023-03-26T04:48:29;99734.78;;;8.71;100.00
3142;BME280;1581;51.568;6.998;2023-03-26T04:50:57;99736.81;;;8.69;100.00
3142;BME280;1581;51.568;6.998;2023-03-26T04:53:26;99739.25;;;8.71;100.00
3142;BME280;1581;51.568;6.998;2023-03-26T04:56:00;99738.84;;;8.67;100.00
3142;BME280;1581;51.568;6.998;2023-03-26T04:58:32;99727.00;;;8.76;100.00
3142;BME280;1581;51.568;6.998;2023-03-26T05:01:01;99737.88;;;8.81;100.00
3142;BME280;1581;51.568;6.998;2023-03-26T05:03:30;99722.34;;;8.85;100.00
3142;BME280;1581;51.568;6.998;2023-03-26T05:05:59;99714.38;;;8.85;100.00
3142;BME280;1581;51.568;6.998;2023-03-26T05:08:27;99722.50;;;8.83;100.00
3142;BME280;1581;51.568;6.998;2023-03-26T05:10:55;99713.94;;;8.75;100.00
3142;BME280;1581;51.568;6.998;2023-03-26T05:13:24;99717.41;;;8.75;100.00
3142;BME280;1581;51.568;6.998;2023-03-26T05:15:52;99709.69;;;8.87;100.00
3142;BME280;1581;51.568;6.998;2023-03-26T05:18:20;99710.88;;;8.84;100.00
3142;BME280;1581;51.568;6.998;2023-03-26T05:20:48;99710.09;;;8.90;100.00
3142;BME280;1581;51.568;6.998;2023-03-26T05:23:17;99698.44;;;8.91;100.00
3142;BME280;1581;51.568;6.998;2023-03-26T05:25:44;99698.44;;;8.91;100.00
3142;BME280;1581;51.568;6.998;2023-03-26T05:28:12;99701.28;;;8.96;100.00
3142;BME280;1581;51.568;6.998;2023-03-26T05:30:42;99690.47;;;8.98;100.00
3142;BME280;1581;51.568;6.998;2023-03-26T05:33:10;99688.63;;;9.11;100.00
3142;BME280;1581;51.568;6.998;2023-03-26T05:35:37;99675.75;;;9.08;100.00
3142;BME280;1581;51.568;6.998;2023-03-26T05:38:05;99670.66;;;9.07;100.00
3142;BME280;1581;51.568;6.998;2023-03-26T05:40:33;99673.72;;;9.10;100.00
3142;BME280;1581;51.568;6.998;2023-03-26T05:43:01;99664.72;;;9.11;100.00
3142;BME280;1581;51.568;6.998;2023-03-26T05:45:28;99663.09;;;9.17;100.00
3142;BME280;1581;51.568;6.998;2023-03-26T05:48:00;99657.97;;;9.22;100.00
3142;BME280;1581;51.568;6.998;2023-03-26T05:50:30;99655.13;;;9.23;100.00
3142;BME280;1581;51.568;6.998;2023-03-26T05:52:58;99657.16;;;9.28;100.00
3142;BME280;1581;51.568;6.998;2023-03-26T05:55:25;99649.38;;;9.26;100.00
3142;BME280;1581;51.568;6.998;2023-03-26T05:57:54;99649.13;;;9.34;100.00
3142;BME280;1581;51.568;6.998;2023-03-26T06:00:21;99644.03;;;9.45;100.00
3142;BME280;1581;51.568;6.998;2023-03-26T06:02:50;99644.22;;;9.50;100.00
3142;BME280;1581;51.568;6.998;2023-03-26T06:05:21;99627.63;;;9.55;100.00
3142;BME280;1581;51.568;6.998;2023-03-26T06:07:48;99625.97;;;9.67;100.00
3142;BME280;1581;51.568;6.998;2023-03-26T06:10:17;99619.81;;;9.73;100.00
3142;BME280;1581;51.568;6.998;2023-03-26T06:12:45;99616.81;;;9.56;100.00
3142;BME280;1581;51.568;6.998;2023-03-26T06:15:14;99618.22;;;9.59;100.00
3142;BME280;1581;51.568;6.998;2023-03-26T06:17:42;99610.66;;;9.56;100.00
3142;BME280;1581;51.568;6.998;2023-03-26T06:20:13;99614.13;;;9.63;100.00
3142;BME280;1581;51.568;6.998;2023-03-26T06:22:43;99608.38;;;9.66;100.00
3142;BME280;1581;51.568;6.998;2023-03-26T06:25:11;99611.63;;;9.68;100.00
3142;BME280;1581;51.568;6.998;2023-03-26T06:27:39;99621.88;;;9.71;100.00
3142;BME280;1581;51.568;6.998;2023-03-26T06:30:10;99613.28;;;9.62;100.00
3142;BME280;1581;51.568;6.998;2023-03-26T06:32:38;99621.47;;;9.67;100.00
3142;BME280;1581;51.568;6.998;2023-03-26T06:35:07;99623.28;;;9.73;100.00
3142;BME280;1581;51.568;6.998;2023-03-26T06:37:35;99615.69;;;9.77;100.00
3142;BME280;1581;51.568;6.998;2023-03-26T06:40:06;99623.06;;;9.75;100.00
3142;BME280;1581;51.568;6.998;2023-03-26T06:42:34;99623.28;;;9.67;100.00
3142;BME280;1581;51.568;6.998;2023-03-26T06:45:02;99619.34;;;9.82;100.00
3142;BME280;1581;51.568;6.998;2023-03-26T06:47:30;99624.66;;;9.89;100.00
3142;BME280;1581;51.568;6.998;2023-03-26T06:49:58;99617.88;;;9.99;100.00
3142;BME280;1581;51.568;6.998;2023-03-26T06:52:26;99622.69;;;10.22;100.00
3142;BME280;1581;51.568;6.998;2023-03-26T06:54:56;99624.50;;;10.27;100.00
3142;BME280;1581;51.568;6.998;2023-03-26T06:57:26;99625.72;;;10.31;100.00
3142;BME280;1581;51.568;6.998;2023-03-26T06:59:54;99619.78;;;10.29;100.00
3142;BME280;1581;51.568;6.998;2023-03-26T07:02:22;99621.56;;;10.35;100.00
3142;BME280;1581;51.568;6.998;2023-03-26T07:04:50;99607.50;;;10.28;100.00
3142;BME280;1581;51.568;6.998;2023-03-26T07:07:18;99619.56;;;10.31;100.00
3142;BME280;1581;51.568;6.998;2023-03-26T07:09:46;99610.81;;;10.55;100.00
3142;BME280;1581;51.568;6.998;2023-03-26T07:12:14;99609.13;;;10.60;100.00
3142;BME280;1581;51.568;6.998;2023-03-26T07:14:43;99604.75;;;10.72;100.00
3142;BME280;1581;51.568;6.998;2023-03-26T07:17:11;99595.22;;;10.83;100.00
3142;BME280;1581;51.568;6.998;2023-03-26T07:19:42;99598.16;;;10.99;100.00
3142;BME280;1581;51.568;6.998;2023-03-26T07:22:18;99592.16;;;11.04;100.00
3142;BME280;1581;51.568;6.998;2023-03-26T07:24:48;99589.94;;;11.01;100.00
3142;BME280;1581;51.568;6.998;2023-03-26T07:27:33;99587.59;;;10.86;100.00
3142;BME280;1581;51.568;6.998;2023-03-26T07:30:08;99577.69;;;10.93;100.00
3142;BME280;1581;51.568;6.998;2023-03-26T07:32:46;99572.13;;;10.77;100.00
3142;BME280;1581;51.568;6.998;2023-03-26T07:35:22;99578.75;;;10.92;100.00
3142;BME280;1581;51.568;6.998;2023-03-26T07:38:02;99570.91;;;10.97;100.00
3142;BME280;1581;51.568;6.998;2023-03-26T07:40:51;99580.91;;;11.02;100.00
3142;BME280;1581;51.568;6.998;2023-03-26T07:43:32;99565.88;;;11.07;100.00
3142;BME280;1581;51.568;6.998;2023-03-26T07:46:04;99562.78;;;11.10;100.00
3142;BME280;1581;51.568;6.998;2023-03-26T07:48:40;99555.53;;;11.17;100.00
3142;BME280;1581;51.568;6.998;2023-03-26T07:51:10;99556.56;;;11.16;100.00
3142;BME280;1581;51.568;6.998;2023-03-26T07:53:39;99555.81;;;11.09;100.00
3142;BME280;1581;51.568;6.998;2023-03-26T07:56:11;99546.41;;;11.07;100.00
3142;BME280;1581;51.568;6.998;2023-03-26T07:58:55;99547.16;;;11.13;100.00
3142;BME280;1581;51.568;6.998;2023-03-26T08:01:43;99541.31;;;11.41;100.00
3142;BME280;1581;51.568;6.998;2023-03-26T08:04:37;99545.47;;;11.19;100.00
3142;BME280;1581;51.568;6.998;2023-03-26T08:07:15;99534.56;;;11.20;100.00
3142;BME280;1581;51.568;6.998;2023-03-26T08:09:58;99537.47;;;11.19;100.00
3142;BME280;1581;51.568;6.998;2023-03-26T08:12:40;99535.03;;;11.35;100.00
3142;BME280;1581;51.568;6.998;2023-03-26T08:15:19;99541.31;;;11.41;100.00
3142;BME280;1581;51.568;6.998;2023-03-26T08:17:57;99534.00;;;11.36;100.00
3142;BME280;1581;51.568;6.998;2023-03-26T08:20:36;99533.31;;;11.41;100.00
3142;BME280;1581;51.568;6.998;2023-03-26T08:23:18;99529.03;;;11.58;100.00
3142;BME280;1581;51.568;6.998;2023-03-26T08:25:59;99530.78;;;11.46;100.00
3142;BME280;1581;51.568;6.998;2023-03-26T08:28:45;99528.19;;;11.21;100.00
3142;BME280;1581;51.568;6.998;2023-03-26T08:31:18;99523.69;;;11.40;100.00
3142;BME280;1581;51.568;6.998;2023-03-26T08:33:51;99521.75;;;11.11;100.00
3142;BME280;1581;51.568;6.998;2023-03-26T08:36:19;99521.59;;;11.06;100.00
3142;BME280;1581;51.568;6.998;2023-03-26T08:38:47;99523.47;;;11.23;100.00
3142;BME280;1581;51.568;6.998;2023-03-26T08:45:08;99521.97;;;11.10;100.00
3142;BME280;1581;51.568;6.998;2023-03-26T08:48:25;99519.00;;;11.00;100.00
3142;BME280;1581;51.568;6.998;2023-03-26T08:51:48;99521.53;;;11.30;100.00
3142;BME280;1581;51.568;6.998;2023-03-26T08:55:09;99514.41;;;11.42;100.00
3142;BME280;1581;51.568;6.998;2023-03-26T08:58:38;99522.75;;;11.52;100.00
3142;BME280;1581;51.568;6.998;2023-03-26T09:01:37;99524.50;;;11.58;100.00
3142;BME280;1581;51.568;6.998;2023-03-26T09:08:17;99517.16;;;11.36;100.00
3142;BME280;1581;51.568;6.998;2023-03-26T09:11:35;99524.50;;;11.40;100.00
3142;BME280;1581;51.568;6.998;2023-03-26T09:18:39;99529.03;;;11.40;100.00
3142;BME280;1581;51.568;6.998;2023-03-26T09:24:54;99523.75;;;11.51;100.00
3142;BME280;1581;51.568;6.998;2023-03-26T09:27:38;99518.97;;;11.60;100.00
3142;BME280;1581;51.568;6.998;2023-03-26T09:33:55;99510.84;;;11.30;100.00
3142;BME280;1581;51.568;6.998;2023-03-26T09:36:46;99514.06;;;11.39;100.00
3142;BME280;1581;51.568;6.998;2023-03-26T09:39:34;99512.28;;;11.51;100.00
3142;BME280;1581;51.568;6.998;2023-03-26T09:42:16;99503.53;;;11.08;100.00
3142;BME280;1581;51.568;6.998;2023-03-26T09:48:56;99507.88;;;11.38;100.00
3142;BME280;1581;51.568;6.998;2023-03-26T09:52:01;99507.09;;;11.38;100.00
3142;BME280;1581;51.568;6.998;2023-03-26T09:55:11;99499.31;;;11.36;100.00
3142;BME280;1581;51.568;6.998;2023-03-26T10:00:50;99503.16;;;11.58;100.00
3142;BME280;1581;51.568;6.998;2023-03-26T10:03:30;99505.31;;;11.68;100.00
3142;BME280;1581;51.568;6.998;2023-03-26T10:06:18;99505.19;;;11.63;100.00
3142;BME280;1581;51.568;6.998;2023-03-26T10:09:02;99509.44;;;11.64;100.00
3142;BME280;1581;51.568;6.998;2023-03-26T10:11:51;99503.56;;;11.62;100.00
3142;BME280;1581;51.568;6.998;2023-03-26T10:14:28;99494.78;;;11.73;100.00
3142;BME280;1581;51.568;6.998;2023-03-26T10:17:06;99499.88;;;11.74;100.00
3142;BME280;1581;51.568;6.998;2023-03-26T10:19:51;99497.81;;;11.58;100.00
3142;BME280;1581;51.568;6.998;2023-03-26T10:22:42;99493.09;;;11.60;100.00
3142;BME280;1581;51.568;6.998;2023-03-26T10:25:38;99492.56;;;11.52;100.00
3142;BME280;1581;51.568;6.998;2023-03-26T10:28:54;99494.63;;;11.68;100.00
3142;BME280;1581;51.568;6.998;2023-03-26T10:31:43;99499.38;;;11.66;100.00
3142;BME280;1581;51.568;6.998;2023-03-26T10:34:37;99493.28;;;11.77;100.00
3142;BME280;1581;51.568;6.998;2023-03-26T10:37:12;99493.31;;;11.88;100.00
3142;BME280;1581;51.568;6.998;2023-03-26T10:40:19;99491.16;;;11.97;100.00
3142;BME280;1581;51.568;6.998;2023-03-26T10:43:25;99492.78;;;11.98;100.00
3142;BME280;1581;51.568;6.998;2023-03-26T10:46:29;99492.69;;;12.04;100.00
3142;BME280;1581;51.568;6.998;2023-03-26T10:49:40;99490.69;;;12.00;100.00
3142;BME280;1581;51.568;6.998;2023-03-26T10:52:19;99487.34;;;12.04;100.00
3142;BME280;1581;51.568;6.998;2023-03-26T10:54:54;99488.16;;;12.04;100.00
3142;BME280;1581;51.568;6.998;2023-03-26T10:57:33;99488.28;;;11.80;100.00
3142;BME280;1581;51.568;6.998;2023-03-26T11:00:16;99479.69;;;12.07;100.00
3142;BME280;1581;51.568;6.998;2023-03-26T11:03:24;99479.34;;;12.15;100.00
3142;BME280;1581;51.568;6.998;2023-03-26T11:06:06;99475.41;;;12.18;100.00
3142;BME280;1581;51.568;6.998;2023-03-26T11:08:41;99482.16;;;12.20;100.00
3142;BME280;1581;51.568;6.998;2023-03-26T11:11:20;99480.88;;;12.11;100.00
3142;BME280;1581;51.568;6.998;2023-03-26T11:13:59;99486.41;;;12.10;100.00
3142;BME280;1581;51.568;6.998;2023-03-26T11:16:39;99477.38;;;12.11;100.00
3142;BME280;1581;51.568;6.998;2023-03-26T11:19:19;99476.56;;;12.10;100.00
3142;BME280;1581;51.568;6.998;2023-03-26T11:21:59;99475.38;;;12.06;100.00
3142;BME280;1581;51.568;6.998;2023-03-26T11:24:47;99472.13;;;12.04;100.00
3142;BME280;1581;51.568;6.998;2023-03-26T11:27:35;99476.69;;;12.15;100.00
3142;BME280;1581;51.568;6.998;2023-03-26T11:30:20;99471.13;;;12.17;100.00
3142;BME280;1581;51.568;6.998;2023-03-26T11:32:56;99482.63;;;12.17;100.00
3142;BME280;1581;51.568;6.998;2023-03-26T11:35:29;99476.75;;;11.98;100.00
3142;BME280;1581;51.568;6.998;2023-03-26T11:38:03;99476.75;;;11.98;100.00
3142;BME280;1581;51.568;6.998;2023-03-26T11:40:36;99474.84;;;11.75;100.00
3142;BME280;1581;51.568;6.998;2023-03-26T11:43:11;99480.69;;;11.48;100.00
3142;BME280;1581;51.568;6.998;2023-03-26T11:45:44;99482.56;;;11.29;100.00
3142;BME280;1581;51.568;6.998;2023-03-26T11:48:16;99486.63;;;10.96;100.00
3142;BME280;1581;51.568;6.998;2023-03-26T11:50:50;99473.25;;;11.20;100.00
3142;BME280;1581;51.568;6.998;2023-03-26T11:53:24;99484.38;;;11.17;100.00
3142;BME280;1581;51.568;6.998;2023-03-26T11:56:00;99472.88;;;10.81;100.00
3142;BME280;1581;51.568;6.998;2023-03-26T11:58:33;99475.25;;;10.89;100.00
3142;BME280;1581;51.568;6.998;2023-03-26T12:01:11;99477.69;;;10.91;100.00
3142;BME280;1581;51.568;6.998;2023-03-26T12:03:40;99474.50;;;11.00;100.00
3142;BME280;1581;51.568;6.998;2023-03-26T12:06:23;99478.91;;;10.70;100.00
3142;BME280;1581;51.568;6.998;2023-03-26T12:08:54;99480.91;;;10.57;100.00
3142;BME280;1581;51.568;6.998;2023-03-26T12:11:26;99479.22;;;10.38;100.00
3142;BME280;1581;51.568;6.998;2023-03-26T12:14:00;99481.00;;;10.44;100.00
3142;BME280;1581;51.568;6.998;2023-03-26T12:16:29;99478.16;;;10.63;100.00
3142;BME280;1581;51.568;6.998;2023-03-26T12:19:02;99483.34;;;10.34;100.00
3142;BME280;1581;51.568;6.998;2023-03-26T12:21:43;99486.56;;;10.42;100.00
3142;BME280;1581;51.568;6.998;2023-03-26T12:24:27;99476.03;;;10.90;100.00
3142;BME280;1581;51.568;6.998;2023-03-26T12:27:01;99477.53;;;11.21;100.00
3142;BME280;1581;51.568;6.998;2023-03-26T12:29:29;99475.88;;;11.38;100.00
3142;BME280;1581;51.568;6.998;2023-03-26T12:32:06;99476.16;;;11.48;100.00
3142;BME280;1581;51.568;6.998;2023-03-26T12:34:35;99475.84;;;12.03;100.00
3142;BME280;1581;51.568;6.998;2023-03-26T12:37:06;99478.81;;;12.48;100.00
3142;BME280;1581;51.568;6.998;2023-03-26T12:39:40;99472.66;;;12.59;100.00
3142;BME280;1581;51.568;6.998;2023-03-26T12:42:27;99470.81;;;12.36;100.00
3142;BME280;1581;51.568;6.998;2023-03-26T12:44:56;99464.72;;;12.18;100.00
3142;BME280;1581;51.568;6.998;2023-03-26T12:47:27;99466.41;;;12.30;100.00
3142;BME280;1581;51.568;6.998;2023-03-26T12:49:57;99476.28;;;12.64;100.00
3142;BME280;1581;51.568;6.998;2023-03-26T12:52:52;99470.72;;;12.88;100.00
3142;BME280;1581;51.568;6.998;2023-03-26T12:55:38;99472.00;;;13.09;100.00
3142;BME280;1581;51.568;6.998;2023-03-26T12:58:25;99468.69;;;13.30;100.00
3142;BME280;1581;51.568;6.998;2023-03-26T13:01:03;99472.31;;;13.63;100.00
3142;BME280;1581;51.568;6.998;2023-03-26T13:04:06;99479.03;;;13.66;100.00
3142;BME280;1581;51.568;6.998;2023-03-26T13:06:43;99472.66;;;14.11;100.00
3142;BME280;1581;51.568;6.998;2023-03-26T13:09:34;99475.81;;;13.91;100.00
3142;BME280;1581;51.568;6.998;2023-03-26T13:12:19;99472.72;;;14.60;100.00
3142;BME280;1581;51.568;6.998;2023-03-26T13:15:20;99477.84;;;14.62;100.00
3142;BME280;1581;51.568;6.998;2023-03-26T13:18:04;99480.50;;;14.62;100.00
3142;BME280;1581;51.568;6.998;2023-03-26T13:20:48;99470.47;;;14.08;100.00
3142;BME280;1581;51.568;6.998;2023-03-26T13:23:30;99467.78;;;14.08;100.00
3142;BME280;1581;51.568;6.998;2023-03-26T13:26:11;99475.22;;;13.89;100.00
3142;BME280;1581;51.568;6.998;2023-03-26T13:28:51;99471.69;;;13.73;100.00
3142;BME280;1581;51.568;6.998;2023-03-26T13:31:26;99477.72;;;13.01;100.00
3142;BME280;1581;51.568;6.998;2023-03-26T13:34:01;99475.25;;;12.54;100.00
3142;BME280;1581;51.568;6.998;2023-03-26T13:36:43;99478.72;;;12.43;100.00
3142;BME280;1581;51.568;6.998;2023-03-26T13:39:23;99471.25;;;12.33;100.00
3142;BME280;1581;51.568;6.998;2023-03-26T13:42:09;99475.63;;;12.16;100.00
3142;BME280;1581;51.568;6.998;2023-03-26T13:44:52;99468.75;;;11.98;100.00
3142;BME280;1581;51.568;6.998;2023-03-26T13:47:26;99468.22;;;12.07;100.00
3142;BME280;1581;51.568;6.998;2023-03-26T13:49:59;99470.56;;;12.26;100.00
3142;BME280;1581;51.568;6.998;2023-03-26T13:52:35;99472.88;;;12.23;100.00
3142;BME280;1581;51.568;6.998;2023-03-26T13:55:20;99473.81;;;12.28;100.00
3142;BME280;1581;51.568;6.998;2023-03-26T13:57:55;99472.44;;;12.26;100.00
3142;BME280;1581;51.568;6.998;2023-03-26T14:00:37;99481.50;;;12.36;100.00
3142;BME280;1581;51.568;6.998;2023-03-26T14:03:19;99477.53;;;12.27;100.00
3142;BME280;1581;51.568;6.998;2023-03-26T14:05:54;99474.09;;;12.09;100.00
3142;BME280;1581;51.568;6.998;2023-03-26T14:08:28;99474.31;;;11.96;100.00
3142;BME280;1581;51.568;6.998;2023-03-26T14:11:03;99478.47;;;11.92;100.00
3142;BME280;1581;51.568;6.998;2023-03-26T14:13:42;99492.41;;;11.94;100.00
3142;BME280;1581;51.568;6.998;2023-03-26T14:16:17;99478.41;;;12.10;100.00
3142;BME280;1581;51.568;6.998;2023-03-26T14:18:55;99478.41;;;12.10;100.00
3142;BME280;1581;51.568;6.998;2023-03-26T14:21:55;99490.00;;;12.04;100.00
3142;BME280;1581;51.568;6.998;2023-03-26T14:24:56;99490.50;;;12.12;100.00
3142;BME280;1581;51.568;6.998;2023-03-26T14:27:45;99491.16;;;12.08;100.00